createdAt,value
2018-12-12T00:00:12.171Z,1.90
2018-12-12T00:02:40.358Z,1.90
2018-12-12T00:05:08.528Z,1.90
2018-12-12T00:07:36.692Z,1.90
2018-12-12T00:10:05.372Z,2.00
2018-12-12T00:12:33.550Z,1.90
2018-12-12T00:15:01.749Z,1.80
2018-12-12T00:17:30.100Z,1.70
2018-12-12T00:19:58.285Z,1.70
2018-12-12T00:22:26.577Z,1.70
2018-12-12T00:24:55.089Z,1.60
2018-12-12T00:27:23.261Z,1.50
2018-12-12T00:29:51.445Z,1.60
2018-12-12T00:32:19.616Z,1.70
2018-12-12T00:34:47.833Z,1.80
2018-12-12T00:37:16.145Z,1.90
2018-12-12T00:39:44.354Z,2.00
2018-12-12T00:42:12.520Z,2.00
2018-12-12T00:44:40.992Z,2.00
2018-12-12T00:47:09.337Z,2.10
2018-12-12T00:49:37.600Z,2.10
2018-12-12T00:52:05.773Z,2.00
2018-12-12T00:54:34.225Z,2.10
2018-12-12T00:57:02.392Z,2.00
2018-12-12T00:59:30.572Z,1.90
2018-12-12T01:01:58.741Z,1.80
2018-12-12T01:04:26.924Z,1.90
2018-12-12T01:06:55.125Z,2.00
2018-12-12T01:09:23.364Z,2.00
2018-12-12T01:11:57.017Z,2.10
2018-12-12T01:14:25.302Z,2.10
2018-12-12T01:16:53.517Z,2.10
2018-12-12T01:19:21.731Z,2.20
2018-12-12T01:21:49.893Z,2.20
2018-12-12T01:24:18.052Z,2.20
2018-12-12T01:26:46.208Z,2.00
2018-12-12T01:29:14.464Z,2.10
2018-12-12T01:31:42.704Z,2.10
2018-12-12T01:34:10.872Z,2.20
2018-12-12T01:36:39.116Z,2.20
2018-12-12T01:39:07.503Z,2.10
2018-12-12T01:41:35.673Z,2.10
2018-12-12T01:44:04.004Z,2.10
2018-12-12T01:46:32.169Z,2.10
2018-12-12T01:49:01.130Z,2.10
2018-12-12T01:51:29.302Z,2.10
2018-12-12T01:53:57.478Z,2.10
2018-12-12T01:56:25.715Z,2.10
2018-12-12T01:58:53.880Z,2.10
2018-12-12T02:01:22.037Z,2.20
2018-12-12T02:03:50.497Z,2.10
2018-12-12T02:06:18.660Z,2.10
2018-12-12T02:08:46.820Z,2.20
2018-12-12T02:11:14.992Z,2.20
2018-12-12T02:13:43.161Z,2.10
2018-12-12T02:16:11.423Z,2.10
2018-12-12T02:18:42.036Z,2.10
2018-12-12T02:21:10.208Z,2.10
2018-12-12T02:23:38.393Z,2.10
2018-12-12T02:26:06.598Z,2.10
2018-12-12T02:28:34.769Z,2.10
2018-12-12T02:31:02.952Z,1.90
2018-12-12T02:33:31.194Z,2.00
2018-12-12T02:35:59.616Z,2.00
2018-12-12T02:38:27.776Z,2.00
2018-12-12T02:40:55.952Z,2.00
2018-12-12T02:43:24.550Z,1.90
2018-12-12T02:45:52.715Z,2.00
2018-12-12T02:48:21.407Z,2.00
2018-12-12T02:50:49.575Z,2.10
2018-12-12T02:53:17.782Z,1.90
2018-12-12T02:55:45.952Z,2.00
2018-12-12T02:58:14.119Z,2.10
2018-12-12T03:00:42.486Z,2.10
2018-12-12T03:03:10.678Z,2.10
2018-12-12T03:05:38.941Z,2.20
2018-12-12T03:08:07.189Z,2.20
2018-12-12T03:10:35.358Z,2.20
2018-12-12T03:13:03.544Z,2.20
2018-12-12T03:15:32.141Z,2.10
2018-12-12T03:18:00.308Z,2.20
2018-12-12T03:20:28.489Z,2.20
2018-12-12T03:22:56.702Z,2.10
2018-12-12T03:25:24.933Z,2.20
2018-12-12T03:27:53.105Z,2.10
2018-12-12T03:30:21.290Z,2.10
2018-12-12T03:32:49.551Z,2.10
2018-12-12T03:35:17.850Z,1.90
2018-12-12T03:37:46.141Z,2.00
2018-12-12T03:40:14.420Z,2.00
2018-12-12T03:42:42.975Z,2.10
2018-12-12T03:45:11.152Z,2.00
2018-12-12T03:47:39.336Z,2.10
2018-12-12T03:50:07.692Z,2.10
2018-12-12T03:52:35.886Z,2.00
2018-12-12T03:55:05.068Z,1.90
2018-12-12T03:57:33.244Z,2.00
2018-12-12T04:00:01.424Z,1.90
2018-12-12T04:02:29.877Z,1.80
2018-12-12T04:04:58.108Z,1.80
2018-12-12T04:07:26.284Z,1.80
2018-12-12T04:09:54.467Z,1.90
2018-12-12T04:12:22.736Z,1.80
2018-12-12T04:14:50.917Z,1.80
2018-12-12T04:17:19.117Z,1.90
2018-12-12T04:19:47.397Z,1.90
2018-12-12T04:22:16.489Z,1.80
2018-12-12T04:24:44.947Z,1.80
2018-12-12T04:27:13.124Z,1.80
2018-12-12T04:29:41.300Z,1.90
2018-12-12T04:32:09.472Z,2.00
2018-12-12T04:34:37.908Z,1.80
2018-12-12T04:37:06.091Z,1.80
2018-12-12T04:39:34.264Z,1.90
2018-12-12T04:42:02.776Z,1.80
2018-12-12T04:44:31.053Z,1.80
2018-12-12T04:46:59.231Z,1.90
2018-12-12T04:49:27.395Z,1.70
2018-12-12T04:51:55.637Z,1.60
2018-12-12T04:54:23.837Z,1.70
2018-12-12T04:56:52.126Z,1.80
2018-12-12T04:59:20.580Z,1.80
2018-12-12T05:01:48.848Z,1.80
2018-12-12T05:04:17.025Z,1.70
2018-12-12T05:06:45.593Z,1.70
2018-12-12T05:09:13.861Z,1.80
2018-12-12T05:11:42.028Z,1.70
2018-12-12T05:14:10.184Z,1.70
2018-12-12T05:16:38.353Z,1.70
2018-12-12T05:19:06.601Z,1.60
2018-12-12T05:21:34.853Z,1.70
2018-12-12T05:24:03.249Z,1.60
2018-12-12T05:26:31.691Z,1.60
2018-12-12T05:28:59.899Z,1.60
2018-12-12T05:31:28.081Z,1.60
2018-12-12T05:33:56.277Z,1.60
2018-12-12T05:36:24.528Z,1.50
2018-12-12T05:38:52.720Z,1.50
2018-12-12T05:41:20.900Z,1.40
2018-12-12T05:43:49.079Z,1.50
2018-12-12T05:46:17.246Z,1.60
2018-12-12T05:48:45.405Z,1.50
2018-12-12T05:51:13.577Z,1.50
2018-12-12T05:53:41.748Z,1.40
2018-12-12T05:56:14.047Z,1.50
2018-12-12T05:58:40.252Z,1.60
2018-12-12T06:01:08.420Z,1.40
2018-12-12T06:03:36.592Z,1.50
2018-12-12T06:06:04.851Z,1.50
2018-12-12T06:08:33.156Z,1.50
2018-12-12T06:11:01.340Z,1.40
2018-12-12T06:13:29.524Z,1.50
2018-12-12T06:15:57.757Z,1.50
2018-12-12T06:18:25.949Z,1.50
2018-12-12T06:20:54.146Z,1.60
2018-12-12T06:23:22.320Z,1.50
2018-12-12T06:25:50.509Z,1.40
2018-12-12T06:28:18.717Z,1.40
2018-12-12T06:30:47.036Z,1.40
2018-12-12T06:33:15.354Z,1.50
2018-12-12T06:35:43.693Z,1.40
2018-12-12T06:38:12.024Z,1.20
2018-12-12T06:40:40.220Z,1.30
2018-12-12T06:43:08.424Z,1.20
2018-12-12T06:45:36.621Z,1.30
2018-12-12T06:48:04.905Z,1.40
2018-12-12T06:50:33.193Z,1.50
2018-12-12T06:53:01.380Z,1.50
2018-12-12T06:55:29.588Z,1.60
2018-12-12T06:57:57.889Z,1.60
2018-12-12T07:00:26.080Z,1.60
2018-12-12T07:02:54.355Z,1.80
2018-12-12T07:05:22.655Z,1.70
2018-12-12T07:07:50.869Z,1.70
2018-12-12T07:10:19.044Z,1.70
2018-12-12T07:12:47.236Z,1.70
2018-12-12T07:15:15.421Z,1.70
2018-12-12T07:17:43.620Z,1.70
2018-12-12T07:20:11.785Z,1.70
2018-12-12T07:22:40.259Z,1.50
2018-12-12T07:25:08.524Z,1.60
2018-12-12T07:27:36.708Z,1.60
2018-12-12T07:30:06.257Z,1.60
2018-12-12T07:32:34.640Z,1.50
2018-12-12T07:35:02.892Z,1.50
2018-12-12T07:37:31.249Z,1.60
2018-12-12T07:39:59.601Z,1.60
2018-12-12T07:42:27.784Z,1.70
2018-12-12T07:44:56.208Z,1.60
2018-12-12T07:47:24.773Z,1.60
2018-12-12T07:49:53.037Z,1.70
2018-12-12T07:52:21.303Z,1.50
2018-12-12T07:54:49.663Z,1.30
2018-12-12T07:57:17.866Z,1.40
2018-12-12T07:59:46.265Z,1.30
2018-12-12T08:02:14.577Z,1.40
2018-12-12T08:04:42.837Z,1.50
2018-12-12T08:07:11.210Z,1.50
2018-12-12T08:09:39.612Z,1.60
2018-12-12T08:12:07.810Z,1.70
2018-12-12T08:14:36.702Z,1.70
2018-12-12T08:17:05.289Z,1.70
2018-12-12T08:19:33.508Z,1.90
2018-12-12T08:22:01.680Z,1.80
2018-12-12T08:24:30.124Z,1.90
2018-12-12T08:26:58.388Z,1.90
2018-12-12T08:29:26.548Z,2.00
2018-12-12T08:31:54.929Z,1.90
2018-12-12T08:34:23.150Z,1.90
2018-12-12T08:36:51.982Z,2.00
2018-12-12T08:39:20.156Z,2.00
2018-12-12T08:41:48.496Z,2.10
2018-12-12T08:44:16.961Z,2.10
2018-12-12T08:46:45.221Z,2.10
2018-12-12T08:49:13.562Z,2.00
2018-12-12T08:51:41.820Z,1.90
2018-12-12T08:54:10.034Z,1.90
2018-12-12T08:56:38.209Z,1.90
2018-12-12T08:59:06.453Z,1.90
2018-12-12T09:01:34.804Z,1.90
2018-12-12T09:04:03.048Z,1.90
2018-12-12T09:06:31.232Z,2.00
2018-12-12T09:08:59.398Z,2.10
2018-12-12T09:11:27.568Z,2.00
2018-12-12T09:13:55.733Z,2.10
2018-12-12T09:16:23.929Z,2.10
2018-12-12T09:18:53.470Z,2.10
2018-12-12T09:21:21.647Z,2.10
2018-12-12T09:23:49.824Z,2.20
2018-12-12T09:26:18.304Z,2.30
2018-12-12T09:28:46.477Z,2.40
2018-12-12T09:31:14.649Z,2.30
2018-12-12T09:33:42.817Z,2.20
2018-12-12T09:36:11.000Z,2.20
2018-12-12T09:38:39.176Z,2.20
2018-12-12T09:41:07.424Z,2.20
2018-12-12T09:43:35.621Z,2.20
2018-12-12T09:46:03.884Z,2.20
2018-12-12T09:48:32.061Z,2.20
2018-12-12T09:51:06.837Z,2.30
2018-12-12T09:53:30.409Z,2.40
2018-12-12T09:55:58.695Z,2.50
2018-12-12T09:58:26.897Z,2.30
2018-12-12T10:00:55.074Z,2.30
2018-12-12T10:03:23.244Z,2.40
2018-12-12T10:05:51.423Z,2.40
2018-12-12T10:08:19.904Z,2.50
2018-12-12T10:10:48.093Z,2.50
2018-12-12T10:13:16.760Z,2.50
2018-12-12T10:15:45.200Z,2.60
2018-12-12T10:18:13.477Z,2.60
2018-12-12T10:20:41.718Z,2.60
2018-12-12T10:23:09.920Z,2.50
2018-12-12T10:25:38.225Z,2.60
2018-12-12T10:28:06.491Z,2.60
2018-12-12T10:30:34.644Z,2.60
2018-12-12T10:33:02.815Z,2.60
2018-12-12T10:35:31.193Z,2.60
2018-12-12T10:37:59.493Z,2.70
2018-12-12T10:40:27.677Z,2.60
2018-12-12T10:42:55.840Z,2.70
2018-12-12T10:45:24.008Z,2.80
2018-12-12T10:47:52.168Z,2.80
2018-12-12T10:50:20.336Z,2.80
2018-12-12T10:52:48.489Z,2.80
2018-12-12T10:55:16.768Z,2.80
2018-12-12T10:57:44.923Z,2.80
2018-12-12T11:00:13.256Z,2.80
2018-12-12T11:02:47.176Z,2.70
2018-12-12T11:05:15.828Z,2.70
2018-12-12T11:07:43.981Z,2.60
2018-12-12T11:10:12.141Z,2.60
2018-12-12T11:12:40.320Z,2.60
2018-12-12T11:15:08.705Z,2.60
2018-12-12T11:17:36.901Z,2.70
2018-12-12T11:20:05.845Z,2.60
2018-12-12T11:22:34.071Z,2.60
2018-12-12T11:25:02.344Z,2.60
2018-12-12T11:27:30.526Z,2.70
2018-12-12T11:29:58.788Z,2.70
2018-12-12T11:32:26.955Z,2.80
2018-12-12T11:34:55.683Z,2.80
2018-12-12T11:37:23.840Z,2.80
2018-12-12T11:39:52.013Z,2.80
2018-12-12T11:42:20.172Z,2.80
2018-12-12T11:44:48.352Z,2.80
2018-12-12T11:47:16.531Z,2.90
2018-12-12T11:49:44.704Z,2.80
2018-12-12T11:52:13.088Z,2.90
2018-12-12T11:54:41.286Z,2.90
2018-12-12T11:57:09.579Z,2.90
2018-12-12T11:59:37.789Z,2.90
2018-12-12T12:02:06.011Z,2.90
2018-12-12T12:04:34.176Z,2.90
2018-12-12T12:07:02.439Z,2.90
2018-12-12T12:09:30.612Z,2.90
2018-12-12T12:11:58.768Z,2.90
2018-12-12T12:14:27.012Z,2.90
2018-12-12T12:16:55.252Z,2.90
2018-12-12T12:19:23.496Z,2.90
2018-12-12T12:21:51.644Z,3.00
2018-12-12T12:24:20.556Z,3.00
2018-12-12T12:26:48.711Z,2.90
2018-12-12T12:29:17.140Z,3.00
2018-12-12T12:31:45.557Z,2.90
2018-12-12T12:34:13.708Z,2.90
2018-12-12T12:36:41.860Z,3.00
2018-12-12T12:39:10.141Z,3.10
2018-12-12T12:41:38.318Z,3.10
2018-12-12T12:44:06.576Z,3.10
2018-12-12T12:46:34.744Z,3.10
2018-12-12T12:49:02.900Z,3.10
2018-12-12T12:51:31.058Z,3.10
2018-12-12T12:53:59.199Z,3.10
2018-12-12T12:56:27.440Z,3.00
2018-12-12T12:58:55.600Z,3.10
2018-12-12T13:01:23.758Z,3.00
2018-12-12T13:03:51.908Z,2.90
2018-12-12T13:06:20.079Z,3.00
2018-12-12T13:08:48.324Z,3.10
2018-12-12T13:11:16.484Z,3.10
2018-12-12T13:13:44.656Z,3.10
2018-12-12T13:16:12.920Z,3.10
2018-12-12T13:18:41.083Z,3.10
2018-12-12T13:21:09.295Z,3.10
2018-12-12T13:23:37.492Z,3.20
2018-12-12T13:26:05.680Z,3.20
2018-12-12T13:28:33.873Z,3.20
2018-12-12T13:31:02.064Z,3.20
2018-12-12T13:33:30.419Z,3.30
2018-12-12T13:35:58.599Z,3.20
2018-12-12T13:38:26.901Z,3.20
2018-12-12T13:40:55.211Z,3.20
2018-12-12T13:43:23.387Z,3.30
2018-12-12T13:45:52.522Z,3.30
2018-12-12T13:48:22.928Z,3.30
2018-12-12T13:50:51.492Z,3.30
2018-12-12T13:53:20.456Z,3.30
2018-12-12T13:55:50.135Z,3.40
2018-12-12T13:58:18.304Z,3.30
2018-12-12T14:00:46.483Z,3.30
2018-12-12T14:03:14.662Z,3.30
2018-12-12T14:05:42.848Z,3.20
2018-12-12T14:08:11.076Z,3.30
2018-12-12T14:10:39.264Z,3.20
2018-12-12T14:13:07.639Z,3.20
2018-12-12T14:15:35.801Z,3.30
2018-12-12T14:18:04.119Z,3.20
2018-12-12T14:20:32.283Z,3.30
2018-12-12T14:23:00.434Z,3.30
2018-12-12T14:25:28.625Z,3.30
2018-12-12T14:27:56.822Z,3.30
2018-12-12T14:30:25.068Z,3.30
2018-12-12T14:32:53.225Z,3.30
2018-12-12T14:35:21.656Z,3.20
2018-12-12T14:37:50.120Z,3.30
2018-12-12T14:40:18.287Z,3.30
2018-12-12T14:42:46.441Z,3.20
2018-12-12T14:45:14.595Z,3.20
2018-12-12T14:47:42.744Z,3.30
2018-12-12T14:50:11.411Z,3.30
2018-12-12T14:52:39.833Z,3.30
2018-12-12T14:55:08.068Z,3.30
2018-12-12T14:57:36.216Z,3.30
2018-12-12T15:00:05.140Z,3.30
2018-12-12T15:02:33.334Z,3.30
2018-12-12T15:05:01.526Z,3.20
2018-12-12T15:07:29.786Z,3.20
2018-12-12T15:09:58.031Z,3.10
2018-12-12T15:12:26.188Z,3.20
2018-12-12T15:14:54.406Z,3.20
2018-12-12T15:17:22.580Z,3.20
2018-12-12T15:19:50.769Z,3.20
2018-12-12T15:22:19.268Z,3.20
2018-12-12T15:24:47.423Z,3.20
2018-12-12T15:27:15.580Z,3.10
2018-12-12T15:29:43.968Z,3.10
2018-12-12T15:32:12.123Z,3.10
2018-12-12T15:34:42.385Z,3.10
2018-12-12T15:37:10.512Z,3.10
2018-12-12T15:39:38.669Z,3.10
2018-12-12T15:42:06.836Z,3.20
2018-12-12T15:44:35.120Z,3.20
2018-12-12T15:47:03.289Z,3.10
2018-12-12T15:49:31.470Z,3.10
2018-12-12T15:51:59.651Z,3.10
2018-12-12T15:54:27.817Z,3.10
2018-12-12T15:56:56.084Z,3.20
2018-12-12T15:59:24.249Z,3.20
2018-12-12T16:01:52.421Z,3.20
2018-12-12T16:04:20.615Z,3.20
2018-12-12T16:06:48.776Z,3.20
2018-12-12T16:09:17.264Z,3.20
2018-12-12T16:11:45.523Z,3.10
2018-12-12T16:14:17.290Z,3.20
2018-12-12T16:16:46.141Z,3.20
2018-12-12T16:19:14.392Z,3.30
2018-12-12T16:21:42.561Z,3.20
2018-12-12T16:24:10.745Z,3.20
2018-12-12T16:26:39.045Z,3.20
2018-12-12T16:29:07.244Z,3.20
2018-12-12T16:31:35.430Z,3.20
2018-12-12T16:34:03.836Z,3.20
2018-12-12T16:36:32.004Z,3.30
2018-12-12T16:39:00.504Z,3.20
2018-12-12T16:41:28.759Z,3.20
2018-12-12T16:43:56.929Z,3.20
2018-12-12T16:46:25.505Z,3.20
2018-12-12T16:48:53.661Z,3.20
2018-12-12T16:51:21.844Z,3.20
2018-12-12T16:53:50.010Z,3.20
2018-12-12T16:56:18.181Z,3.30
2018-12-12T16:58:46.374Z,3.30
2018-12-12T17:01:14.669Z,3.30
2018-12-12T17:03:43.066Z,3.30
2018-12-12T17:06:11.248Z,3.30
2018-12-12T17:08:39.508Z,3.40
2018-12-12T17:11:07.796Z,3.40
2018-12-12T17:13:36.381Z,3.50
2018-12-12T17:16:04.636Z,3.50
2018-12-12T17:18:32.845Z,3.40
2018-12-12T17:21:01.362Z,3.40
2018-12-12T17:23:29.581Z,3.40
2018-12-12T17:25:58.237Z,3.30
2018-12-12T17:28:26.413Z,3.30
2018-12-12T17:30:54.652Z,3.40
2018-12-12T17:33:22.857Z,3.30
2018-12-12T17:35:51.101Z,3.30
2018-12-12T17:38:19.317Z,3.60
2018-12-12T17:40:47.488Z,3.60
2018-12-12T17:43:15.689Z,3.50
2018-12-12T17:45:44.127Z,3.50
2018-12-12T17:48:12.312Z,3.40
2018-12-12T17:50:40.498Z,3.30
2018-12-12T17:53:08.681Z,3.40
2018-12-12T17:55:38.199Z,3.40
2018-12-12T17:58:06.669Z,3.40
2018-12-12T18:00:34.958Z,3.30
2018-12-12T18:03:03.148Z,3.30
2018-12-12T18:05:31.336Z,3.20
2018-12-12T18:07:59.793Z,3.20
2018-12-12T18:10:27.972Z,3.20
2018-12-12T18:12:56.144Z,3.20
2018-12-12T18:15:24.580Z,3.20
2018-12-12T18:17:52.833Z,3.20
2018-12-12T18:20:20.991Z,3.10
2018-12-12T18:22:49.156Z,3.10
2018-12-12T18:25:17.306Z,3.20
2018-12-12T18:27:45.465Z,3.20
2018-12-12T18:30:13.704Z,3.20
2018-12-12T18:32:41.875Z,3.20
2018-12-12T18:35:10.040Z,3.20
2018-12-12T18:37:38.273Z,3.10
2018-12-12T18:40:06.641Z,3.10
2018-12-12T18:42:34.813Z,3.00
2018-12-12T18:45:03.222Z,3.00
2018-12-12T18:47:31.653Z,3.10
2018-12-12T18:49:59.813Z,3.10
2018-12-12T18:52:27.989Z,3.10
2018-12-12T18:54:56.135Z,3.10
2018-12-12T18:57:24.308Z,3.10
2018-12-12T18:59:52.983Z,3.00
2018-12-12T19:02:21.156Z,3.10
2018-12-12T19:04:49.324Z,3.00
2018-12-12T19:07:17.488Z,3.00
2018-12-12T19:09:45.671Z,3.00
2018-12-12T19:12:13.948Z,3.00
2018-12-12T19:14:47.661Z,3.00
2018-12-12T19:17:15.887Z,3.00
2018-12-12T19:19:44.142Z,2.90
2018-12-12T19:22:12.328Z,2.90
2018-12-12T19:24:40.520Z,2.90
2018-12-12T19:27:08.712Z,2.90
2018-12-12T19:29:37.168Z,2.90
2018-12-12T19:32:05.393Z,2.90
2018-12-12T19:34:33.569Z,2.90
2018-12-12T19:37:01.757Z,2.90
2018-12-12T19:39:29.949Z,3.00
2018-12-12T19:41:58.136Z,3.00
2018-12-12T19:44:26.585Z,3.00
2018-12-12T19:46:54.817Z,2.90
2018-12-12T19:49:22.996Z,2.90
2018-12-12T19:51:51.272Z,2.90
2018-12-12T19:54:19.488Z,3.00
2018-12-12T19:56:48.414Z,3.00
2018-12-12T19:59:16.594Z,2.90
2018-12-12T20:01:44.780Z,2.90
2018-12-12T20:04:12.969Z,2.90
2018-12-12T20:06:41.148Z,2.80
2018-12-12T20:09:09.424Z,2.80
2018-12-12T20:11:37.688Z,2.80
2018-12-12T20:14:05.981Z,2.80
2018-12-12T20:16:34.528Z,2.90
2018-12-12T20:19:02.718Z,2.80
2018-12-12T20:21:31.149Z,2.80
2018-12-12T20:23:59.351Z,2.80
2018-12-12T20:26:27.531Z,2.70
2018-12-12T20:28:55.753Z,2.80
2018-12-12T20:31:24.221Z,2.70
2018-12-12T20:33:52.437Z,2.70
2018-12-12T20:36:20.650Z,2.70
2018-12-12T20:38:48.850Z,2.70
2018-12-12T20:41:17.116Z,2.70
2018-12-12T20:43:45.332Z,2.70
2018-12-12T20:46:13.520Z,2.60
2018-12-12T20:48:41.704Z,2.70
2018-12-12T20:51:09.895Z,2.60
2018-12-12T20:53:38.075Z,2.60
2018-12-12T20:56:06.352Z,2.60
2018-12-12T20:58:34.612Z,2.60
2018-12-12T21:01:02.802Z,2.60
2018-12-12T21:03:31.076Z,2.50
2018-12-12T21:05:59.261Z,2.50
2018-12-12T21:08:27.545Z,2.50
2018-12-12T21:10:55.808Z,2.50
2018-12-12T21:13:24.005Z,2.50
2018-12-12T21:15:52.218Z,2.50
2018-12-12T21:18:20.434Z,2.50
2018-12-12T21:20:48.630Z,2.40
2018-12-12T21:23:16.969Z,2.40
2018-12-12T21:25:45.537Z,2.40
2018-12-12T21:28:13.724Z,2.40
2018-12-12T21:30:41.900Z,2.40
2018-12-12T21:33:10.996Z,2.40
2018-12-12T21:35:39.472Z,2.30
2018-12-12T21:38:08.165Z,2.20
2018-12-12T21:40:36.361Z,2.20
2018-12-12T21:43:04.564Z,2.30
2018-12-12T21:45:32.824Z,2.30
2018-12-12T21:48:01.671Z,2.40
2018-12-12T21:50:29.859Z,2.40
2018-12-12T21:52:58.045Z,2.30
2018-12-12T21:55:26.261Z,2.30
2018-12-12T21:57:54.504Z,2.30
2018-12-12T22:00:22.797Z,2.30
2018-12-12T22:02:51.029Z,2.30
2018-12-12T22:05:19.409Z,2.30
2018-12-12T22:07:47.648Z,2.40
2018-12-12T22:10:16.328Z,2.40
2018-12-12T22:12:44.553Z,2.50
2018-12-12T22:15:12.825Z,2.50
2018-12-12T22:17:41.068Z,2.40
2018-12-12T22:20:09.601Z,2.30
2018-12-12T22:22:37.817Z,2.20
2018-12-12T22:25:06.400Z,2.20
2018-12-12T22:27:34.628Z,2.20
2018-12-12T22:30:02.920Z,2.30
2018-12-12T22:32:31.243Z,2.30
2018-12-12T22:34:59.469Z,2.30
2018-12-12T22:37:27.688Z,2.30
2018-12-12T22:39:55.929Z,2.30
2018-12-12T22:42:24.820Z,2.30
2018-12-12T22:44:53.567Z,2.40
2018-12-12T22:47:21.772Z,2.40
2018-12-12T22:49:50.024Z,2.40
2018-12-12T22:52:18.290Z,2.40
2018-12-12T22:54:46.590Z,2.40
2018-12-12T22:57:14.874Z,2.40
2018-12-12T22:59:43.084Z,2.40
2018-12-12T23:02:11.356Z,2.40
2018-12-12T23:04:39.530Z,2.40
2018-12-12T23:07:07.801Z,2.40
2018-12-12T23:09:35.990Z,2.40
2018-12-12T23:12:04.985Z,2.40
2018-12-12T23:14:33.543Z,2.40
2018-12-12T23:17:01.724Z,2.50
2018-12-12T23:19:30.033Z,2.40
2018-12-12T23:21:58.212Z,2.40
2018-12-12T23:24:26.944Z,2.40
2018-12-12T23:26:55.405Z,2.50
2018-12-12T23:29:23.600Z,2.50
2018-12-12T23:31:51.873Z,2.50
2018-12-12T23:34:20.088Z,2.40
2018-12-12T23:36:48.285Z,2.40
2018-12-12T23:39:16.495Z,2.40
2018-12-12T23:41:44.701Z,2.50
2018-12-12T23:44:12.902Z,2.50
2018-12-12T23:46:41.089Z,2.40
2018-12-12T23:49:09.269Z,2.40
2018-12-12T23:51:37.620Z,2.40
2018-12-12T23:54:05.800Z,2.40
2018-12-12T23:56:34.052Z,2.40
2018-12-12T23:59:02.254Z,2.40
